sensor_id;sensor_type;location;lat;lon;timestamp;temperature;humidity
66184;DHT22;52989;48.796;9.806;2023-05-07T00:01:42;11.30;99.90
66184;DHT22;52989;48.796;9.806;2023-05-07T00:04:08;11.30;99.90
66184;DHT22;52989;48.796;9.806;2023-05-07T00:06:33;11.30;99.90
66184;DHT22;52989;48.796;9.806;2023-05-07T00:08:59;11.30;99.90
66184;DHT22;52989;48.796;9.806;2023-05-07T00:11:26;11.40;99.90
66184;DHT22;52989;48.796;9.806;2023-05-07T00:13:51;11.60;99.90
66184;DHT22;52989;48.796;9.806;2023-05-07T00:16:17;11.50;99.90
66184;DHT22;52989;48.796;9.806;2023-05-07T00:18:42;12.10;99.90
66184;DHT22;52989;48.796;9.806;2023-05-07T00:21:08;11.60;99.90
66184;DHT22;52989;48.796;9.806;2023-05-07T00:23:33;11.30;99.90
66184;DHT22;52989;48.796;9.806;2023-05-07T00:25:59;11.20;99.90
66184;DHT22;52989;48.796;9.806;2023-05-07T00:28:24;11.20;99.90
66184;DHT22;52989;48.796;9.806;2023-05-07T00:30:49;11.10;99.90
66184;DHT22;52989;48.796;9.806;2023-05-07T00:33:15;11.10;99.90
66184;DHT22;52989;48.796;9.806;2023-05-07T00:35:41;11.10;99.90
66184;DHT22;52989;48.796;9.806;2023-05-07T00:38:07;11.20;99.90
66184;DHT22;52989;48.796;9.806;2023-05-07T00:40:32;11.10;99.90
66184;DHT22;52989;48.796;9.806;2023-05-07T00:42:58;11.10;99.90
66184;DHT22;52989;48.796;9.806;2023-05-07T00:45:26;11.20;99.90
66184;DHT22;52989;48.796;9.806;2023-05-07T00:47:53;11.30;99.90
66184;DHT22;52989;48.796;9.806;2023-05-07T00:50:19;11.60;99.90
66184;DHT22;52989;48.796;9.806;2023-05-07T00:52:45;11.60;99.90
66184;DHT22;52989;48.796;9.806;2023-05-07T00:55:11;11.40;99.90
66184;DHT22;52989;48.796;9.806;2023-05-07T00:57:39;11.30;99.90
66184;DHT22;52989;48.796;9.806;2023-05-07T01:00:05;11.10;99.90
66184;DHT22;52989;48.796;9.806;2023-05-07T01:02:31;11.20;99.90
66184;DHT22;52989;48.796;9.806;2023-05-07T01:04:56;11.30;99.90
66184;DHT22;52989;48.796;9.806;2023-05-07T01:07:22;11.10;99.90
66184;DHT22;52989;48.796;9.806;2023-05-07T01:09:48;11.00;99.90
66184;DHT22;52989;48.796;9.806;2023-05-07T01:12:16;11.00;99.90
66184;DHT22;52989;48.796;9.806;2023-05-07T01:14:41;11.00;99.90
66184;DHT22;52989;48.796;9.806;2023-05-07T01:17:07;11.00;99.90
66184;DHT22;52989;48.796;9.806;2023-05-07T01:19:33;11.20;99.90
66184;DHT22;52989;48.796;9.806;2023-05-07T01:22:01;11.40;99.90
66184;DHT22;52989;48.796;9.806;2023-05-07T01:24:27;11.10;99.90
66184;DHT22;52989;48.796;9.806;2023-05-07T01:26:53;11.00;99.90
66184;DHT22;52989;48.796;9.806;2023-05-07T01:29:18;10.80;99.90
66184;DHT22;52989;48.796;9.806;2023-05-07T01:31:44;10.70;99.90
66184;DHT22;52989;48.796;9.806;2023-05-07T01:34:10;10.70;99.90
66184;DHT22;52989;48.796;9.806;2023-05-07T01:36:37;10.80;99.90
66184;DHT22;52989;48.796;9.806;2023-05-07T01:39:03;11.20;99.90
66184;DHT22;52989;48.796;9.806;2023-05-07T01:41:31;10.90;99.90
66184;DHT22;52989;48.796;9.806;2023-05-07T01:43:56;10.80;99.90
66184;DHT22;52989;48.796;9.806;2023-05-07T01:46:23;11.00;99.90
66184;DHT22;52989;48.796;9.806;2023-05-07T01:48:49;11.00;99.90
66184;DHT22;52989;48.796;9.806;2023-05-07T01:51:15;10.80;99.90
66184;DHT22;52989;48.796;9.806;2023-05-07T01:53:40;11.10;99.90
66184;DHT22;52989;48.796;9.806;2023-05-07T01:56:06;10.90;99.90
66184;DHT22;52989;48.796;9.806;2023-05-07T01:58:31;10.80;99.90
66184;DHT22;52989;48.796;9.806;2023-05-07T02:00:57;10.70;99.90
66184;DHT22;52989;48.796;9.806;2023-05-07T02:03:22;10.60;99.90
66184;DHT22;52989;48.796;9.806;2023-05-07T02:05:48;10.80;99.90
66184;DHT22;52989;48.796;9.806;2023-05-07T02:08:13;10.80;99.90
66184;DHT22;52989;48.796;9.806;2023-05-07T02:10:39;10.80;99.90
66184;DHT22;52989;48.796;9.806;2023-05-07T02:13:05;11.40;99.90
66184;DHT22;52989;48.796;9.806;2023-05-07T02:15:30;10.90;99.90
66184;DHT22;52989;48.796;9.806;2023-05-07T02:18:03;10.70;99.90
66184;DHT22;52989;48.796;9.806;2023-05-07T02:20:28;10.60;99.90
66184;DHT22;52989;48.796;9.806;2023-05-07T02:22:54;10.40;99.90
66184;DHT22;52989;48.796;9.806;2023-05-07T02:25:19;10.40;99.90
66184;DHT22;52989;48.796;9.806;2023-05-07T02:27:44;10.60;99.90
66184;DHT22;52989;48.796;9.806;2023-05-07T02:30:11;10.40;99.90
66184;DHT22;52989;48.796;9.806;2023-05-07T02:32:37;10.40;99.90
66184;DHT22;52989;48.796;9.806;2023-05-07T02:35:02;10.50;99.90
66184;DHT22;52989;48.796;9.806;2023-05-07T02:37:28;10.50;99.90
66184;DHT22;52989;48.796;9.806;2023-05-07T02:39:53;10.70;99.90
66184;DHT22;52989;48.796;9.806;2023-05-07T02:42:19;10.60;99.90
66184;DHT22;52989;48.796;9.806;2023-05-07T02:44:44;10.50;99.90
66184;DHT22;52989;48.796;9.806;2023-05-07T02:47:10;10.30;99.90
66184;DHT22;52989;48.796;9.806;2023-05-07T02:49:38;10.80;99.90
66184;DHT22;52989;48.796;9.806;2023-05-07T02:52:03;10.50;99.90
66184;DHT22;52989;48.796;9.806;2023-05-07T02:54:29;10.30;99.90
66184;DHT22;52989;48.796;9.806;2023-05-07T02:56:54;10.20;99.90
66184;DHT22;52989;48.796;9.806;2023-05-07T02:59:20;10.00;99.90
66184;DHT22;52989;48.796;9.806;2023-05-07T03:01:45;10.20;99.90
66184;DHT22;52989;48.796;9.806;2023-05-07T03:04:11;10.00;99.90
66184;DHT22;52989;48.796;9.806;2023-05-07T03:06:36;10.10;99.90
66184;DHT22;52989;48.796;9.806;2023-05-07T03:09:02;9.80;99.90
66184;DHT22;52989;48.796;9.806;2023-05-07T03:11:27;9.70;99.90
66184;DHT22;52989;48.796;9.806;2023-05-07T03:13:53;9.80;99.90
66184;DHT22;52989;48.796;9.806;2023-05-07T03:16:18;9.90;99.90
66184;DHT22;52989;48.796;9.806;2023-05-07T03:18:43;9.70;99.90
66184;DHT22;52989;48.796;9.806;2023-05-07T03:21:09;9.70;99.90
66184;DHT22;52989;48.796;9.806;2023-05-07T03:23:35;9.80;99.90
66184;DHT22;52989;48.796;9.806;2023-05-07T03:26:00;9.80;99.90
66184;DHT22;52989;48.796;9.806;2023-05-07T03:28:26;9.70;99.90
66184;DHT22;52989;48.796;9.806;2023-05-07T03:30:51;9.60;99.90
66184;DHT22;52989;48.796;9.806;2023-05-07T03:33:16;9.60;99.90
66184;DHT22;52989;48.796;9.806;2023-05-07T03:35:42;9.70;99.90
66184;DHT22;52989;48.796;9.806;2023-05-07T03:38:07;10.30;99.90
66184;DHT22;52989;48.796;9.806;2023-05-07T03:40:33;10.00;99.90
66184;DHT22;52989;48.796;9.806;2023-05-07T03:42:59;10.00;99.90
66184;DHT22;52989;48.796;9.806;2023-05-07T03:45:25;10.20;99.90
66184;DHT22;52989;48.796;9.806;2023-05-07T03:47:50;9.80;99.90
66184;DHT22;52989;48.796;9.806;2023-05-07T03:50:15;9.90;99.90
66184;DHT22;52989;48.796;9.806;2023-05-07T03:52:41;10.00;99.90
66184;DHT22;52989;48.796;9.806;2023-05-07T03:55:06;9.60;99.90
66184;DHT22;52989;48.796;9.806;2023-05-07T03:57:32;9.50;99.90
66184;DHT22;52989;48.796;9.806;2023-05-07T03:59:58;9.50;99.90
66184;DHT22;52989;48.796;9.806;2023-05-07T04:02:23;9.80;99.90
66184;DHT22;52989;48.796;9.806;2023-05-07T04:04:49;9.70;99.90
66184;DHT22;52989;48.796;9.806;2023-05-07T04:07:15;9.60;99.90
66184;DHT22;52989;48.796;9.806;2023-05-07T04:09:40;9.50;99.90
66184;DHT22;52989;48.796;9.806;2023-05-07T04:12:06;9.50;99.90
66184;DHT22;52989;48.796;9.806;2023-05-07T04:14:31;9.70;99.90
66184;DHT22;52989;48.796;9.806;2023-05-07T04:17:00;9.60;99.90
66184;DHT22;52989;48.796;9.806;2023-05-07T04:19:25;9.60;99.90
66184;DHT22;52989;48.796;9.806;2023-05-07T04:21:51;10.50;99.90
66184;DHT22;52989;48.796;9.806;2023-05-07T04:24:16;10.50;99.90
66184;DHT22;52989;48.796;9.806;2023-05-07T04:26:42;10.10;99.90
66184;DHT22;52989;48.796;9.806;2023-05-07T04:29:07;9.90;99.90
66184;DHT22;52989;48.796;9.806;2023-05-07T04:31:33;10.00;99.90
66184;DHT22;52989;48.796;9.806;2023-05-07T04:33:58;10.20;99.90
66184;DHT22;52989;48.796;9.806;2023-05-07T04:36:24;10.30;99.90
66184;DHT22;52989;48.796;9.806;2023-05-07T04:38:53;10.00;99.90
66184;DHT22;52989;48.796;9.806;2023-05-07T04:41:18;9.90;99.90
66184;DHT22;52989;48.796;9.806;2023-05-07T04:43:44;10.60;99.90
66184;DHT22;52989;48.796;9.806;2023-05-07T04:46:09;10.60;99.90
66184;DHT22;52989;48.796;9.806;2023-05-07T04:48:35;10.40;99.90
66184;DHT22;52989;48.796;9.806;2023-05-07T04:51:00;10.20;99.90
66184;DHT22;52989;48.796;9.806;2023-05-07T04:53:26;10.10;99.90
66184;DHT22;52989;48.796;9.806;2023-05-07T04:55:55;10.40;99.90
66184;DHT22;52989;48.796;9.806;2023-05-07T04:58:20;10.80;99.90
66184;DHT22;52989;48.796;9.806;2023-05-07T05:00:46;10.60;99.90
66184;DHT22;52989;48.796;9.806;2023-05-07T05:03:11;10.60;99.90
66184;DHT22;52989;48.796;9.806;2023-05-07T05:05:37;11.00;99.90
66184;DHT22;52989;48.796;9.806;2023-05-07T05:08:03;11.40;99.90
66184;DHT22;52989;48.796;9.806;2023-05-07T05:10:28;11.60;99.90
66184;DHT22;52989;48.796;9.806;2023-05-07T05:12:54;11.40;99.90
66184;DHT22;52989;48.796;9.806;2023-05-07T05:15:19;11.20;99.90
66184;DHT22;52989;48.796;9.806;2023-05-07T05:17:45;11.20;99.90
66184;DHT22;52989;48.796;9.806;2023-05-07T05:20:10;11.30;99.90
66184;DHT22;52989;48.796;9.806;2023-05-07T05:22:37;11.10;99.90
66184;DHT22;52989;48.796;9.806;2023-05-07T05:25:02;11.60;99.90
66184;DHT22;52989;48.796;9.806;2023-05-07T05:27:28;12.10;99.90
66184;DHT22;52989;48.796;9.806;2023-05-07T05:29:54;11.70;99.90
66184;DHT22;52989;48.796;9.806;2023-05-07T05:32:19;11.30;99.90
66184;DHT22;52989;48.796;9.806;2023-05-07T05:34:45;11.20;99.90
66184;DHT22;52989;48.796;9.806;2023-05-07T05:37:10;11.30;99.90
66184;DHT22;52989;48.796;9.806;2023-05-07T05:39:36;11.40;99.90
66184;DHT22;52989;48.796;9.806;2023-05-07T05:42:01;11.80;99.90
66184;DHT22;52989;48.796;9.806;2023-05-07T05:44:27;11.60;99.90
66184;DHT22;52989;48.796;9.806;2023-05-07T05:46:52;12.00;99.90
66184;DHT22;52989;48.796;9.806;2023-05-07T05:49:20;11.40;99.90
66184;DHT22;52989;48.796;9.806;2023-05-07T05:51:46;11.20;99.90
66184;DHT22;52989;48.796;9.806;2023-05-07T05:54:11;11.10;99.90
66184;DHT22;52989;48.796;9.806;2023-05-07T05:56:37;11.00;99.90
66184;DHT22;52989;48.796;9.806;2023-05-07T05:59:02;11.50;99.90
66184;DHT22;52989;48.796;9.806;2023-05-07T06:01:28;11.80;99.90
66184;DHT22;52989;48.796;9.806;2023-05-07T06:03:53;12.20;99.90
66184;DHT22;52989;48.796;9.806;2023-05-07T06:06:18;11.70;99.90
66184;DHT22;52989;48.796;9.806;2023-05-07T06:08:44;11.50;99.90
66184;DHT22;52989;48.796;9.806;2023-05-07T06:11:09;11.50;99.90
66184;DHT22;52989;48.796;9.806;2023-05-07T06:13:35;11.80;99.90
66184;DHT22;52989;48.796;9.806;2023-05-07T06:16:01;12.10;99.90
66184;DHT22;52989;48.796;9.806;2023-05-07T06:18:26;12.40;99.90
66184;DHT22;52989;48.796;9.806;2023-05-07T06:20:52;12.80;99.90
66184;DHT22;52989;48.796;9.806;2023-05-07T06:23:17;12.70;99.90
66184;DHT22;52989;48.796;9.806;2023-05-07T06:25:47;12.40;99.90
66184;DHT22;52989;48.796;9.806;2023-05-07T06:28:13;12.60;99.90
66184;DHT22;52989;48.796;9.806;2023-05-07T06:30:38;13.00;99.90
66184;DHT22;52989;48.796;9.806;2023-05-07T06:33:05;13.40;99.90
66184;DHT22;52989;48.796;9.806;2023-05-07T06:35:30;13.60;99.90
66184;DHT22;52989;48.796;9.806;2023-05-07T06:37:56;13.70;99.90
66184;DHT22;52989;48.796;9.806;2023-05-07T06:40:21;14.00;99.90
66184;DHT22;52989;48.796;9.806;2023-05-07T06:42:47;14.20;99.90
66184;DHT22;52989;48.796;9.806;2023-05-07T06:45:12;14.30;99.90
66184;DHT22;52989;48.796;9.806;2023-05-07T06:47:38;14.40;99.90
66184;DHT22;52989;48.796;9.806;2023-05-07T06:50:03;14.50;99.90
66184;DHT22;52989;48.796;9.806;2023-05-07T06:52:29;14.60;99.90
66184;DHT22;52989;48.796;9.806;2023-05-07T06:54:54;14.60;99.90
66184;DHT22;52989;48.796;9.806;2023-05-07T06:57:20;14.50;99.90
66184;DHT22;52989;48.796;9.806;2023-05-07T06:59:45;14.50;99.90
66184;DHT22;52989;48.796;9.806;2023-05-07T07:02:11;14.70;99.90
66184;DHT22;52989;48.796;9.806;2023-05-07T07:04:36;14.80;99.90
66184;DHT22;52989;48.796;9.806;2023-05-07T07:07:02;14.80;99.90
66184;DHT22;52989;48.796;9.806;2023-05-07T07:09:27;15.20;99.90
66184;DHT22;52989;48.796;9.806;2023-05-07T07:11:53;15.20;99.90
66184;DHT22;52989;48.796;9.806;2023-05-07T07:14:18;15.20;99.90
66184;DHT22;52989;48.796;9.806;2023-05-07T07:16:43;15.30;99.90
66184;DHT22;52989;48.796;9.806;2023-05-07T07:19:09;15.40;99.90
66184;DHT22;52989;48.796;9.806;2023-05-07T07:21:34;15.50;99.90
66184;DHT22;52989;48.796;9.806;2023-05-07T07:24:00;15.50;99.90
66184;DHT22;52989;48.796;9.806;2023-05-07T07:26:25;15.60;99.90
66184;DHT22;52989;48.796;9.806;2023-05-07T07:28:51;15.70;99.90
66184;DHT22;52989;48.796;9.806;2023-05-07T07:31:16;15.80;99.90
66184;DHT22;52989;48.796;9.806;2023-05-07T07:33:42;16.00;99.90
66184;DHT22;52989;48.796;9.806;2023-05-07T07:36:07;16.20;99.90
66184;DHT22;52989;48.796;9.806;2023-05-07T07:38:33;16.50;99.90
66184;DHT22;52989;48.796;9.806;2023-05-07T07:40:59;16.70;98.90
66184;DHT22;52989;48.796;9.806;2023-05-07T07:43:24;16.80;98.80
66184;DHT22;52989;48.796;9.806;2023-05-07T07:45:50;17.00;98.40
66184;DHT22;52989;48.796;9.806;2023-05-07T07:48:16;16.80;99.90
66184;DHT22;52989;48.796;9.806;2023-05-07T07:50:41;16.70;99.20
66184;DHT22;52989;48.796;9.806;2023-05-07T07:53:07;16.90;98.70
66184;DHT22;52989;48.796;9.806;2023-05-07T07:55:32;17.20;96.80
66184;DHT22;52989;48.796;9.806;2023-05-07T07:58:02;17.30;96.10
66184;DHT22;52989;48.796;9.806;2023-05-07T08:00:28;17.60;96.40
66184;DHT22;52989;48.796;9.806;2023-05-07T08:02:53;17.80;96.00
66184;DHT22;52989;48.796;9.806;2023-05-07T08:05:19;17.90;96.80
66184;DHT22;52989;48.796;9.806;2023-05-07T08:07:44;17.80;97.00
66184;DHT22;52989;48.796;9.806;2023-05-07T08:10:11;18.00;95.50
66184;DHT22;52989;48.796;9.806;2023-05-07T08:12:37;18.30;93.60
66184;DHT22;52989;48.796;9.806;2023-05-07T08:15:02;18.50;93.50
66184;DHT22;52989;48.796;9.806;2023-05-07T08:17:28;18.70;92.70
66184;DHT22;52989;48.796;9.806;2023-05-07T08:19:53;19.00;92.10
66184;DHT22;52989;48.796;9.806;2023-05-07T08:22:18;19.20;91.80
66184;DHT22;52989;48.796;9.806;2023-05-07T08:24:44;19.20;93.40
66184;DHT22;52989;48.796;9.806;2023-05-07T08:27:10;18.90;94.80
66184;DHT22;52989;48.796;9.806;2023-05-07T08:29:35;19.20;92.80
66184;DHT22;52989;48.796;9.806;2023-05-07T08:32:01;19.60;90.50
66184;DHT22;52989;48.796;9.806;2023-05-07T08:34:26;19.90;90.10
66184;DHT22;52989;48.796;9.806;2023-05-07T08:36:52;20.20;89.10
66184;DHT22;52989;48.796;9.806;2023-05-07T08:39:17;20.40;90.20
66184;DHT22;52989;48.796;9.806;2023-05-07T08:41:44;20.60;83.90
66184;DHT22;52989;48.796;9.806;2023-05-07T08:44:11;20.60;83.40
66184;DHT22;52989;48.796;9.806;2023-05-07T08:46:37;21.00;82.60
66184;DHT22;52989;48.796;9.806;2023-05-07T08:49:02;21.20;81.70
66184;DHT22;52989;48.796;9.806;2023-05-07T08:51:28;21.30;87.50
66184;DHT22;52989;48.796;9.806;2023-05-07T08:53:53;21.30;81.40
66184;DHT22;52989;48.796;9.806;2023-05-07T08:56:19;21.40;81.10
66184;DHT22;52989;48.796;9.806;2023-05-07T08:58:45;21.60;79.70
66184;DHT22;52989;48.796;9.806;2023-05-07T09:01:14;21.30;84.50
66184;DHT22;52989;48.796;9.806;2023-05-07T09:03:40;21.50;81.00
66184;DHT22;52989;48.796;9.806;2023-05-07T09:06:05;21.30;83.20
66184;DHT22;52989;48.796;9.806;2023-05-07T09:08:32;21.20;83.30
66184;DHT22;52989;48.796;9.806;2023-05-07T09:10:58;21.90;77.80
66184;DHT22;52989;48.796;9.806;2023-05-07T09:13:23;22.10;79.70
66184;DHT22;52989;48.796;9.806;2023-05-07T09:15:48;22.30;79.90
66184;DHT22;52989;48.796;9.806;2023-05-07T09:18:14;22.00;81.70
66184;DHT22;52989;48.796;9.806;2023-05-07T09:20:42;22.10;76.40
66184;DHT22;52989;48.796;9.806;2023-05-07T09:23:08;22.40;79.50
66184;DHT22;52989;48.796;9.806;2023-05-07T09:25:34;22.70;79.50
66184;DHT22;52989;48.796;9.806;2023-05-07T09:28:00;23.20;75.30
66184;DHT22;52989;48.796;9.806;2023-05-07T09:30:29;23.30;73.60
66184;DHT22;52989;48.796;9.806;2023-05-07T09:32:56;23.20;74.20
66184;DHT22;52989;48.796;9.806;2023-05-07T09:35:21;23.40;73.20
66184;DHT22;52989;48.796;9.806;2023-05-07T09:37:49;23.50;73.00
66184;DHT22;52989;48.796;9.806;2023-05-07T09:40:25;23.30;73.50
66184;DHT22;52989;48.796;9.806;2023-05-07T09:42:51;23.30;75.40
66184;DHT22;52989;48.796;9.806;2023-05-07T09:45:26;23.00;77.20
66184;DHT22;52989;48.796;9.806;2023-05-07T09:47:54;23.10;75.70
66184;DHT22;52989;48.796;9.806;2023-05-07T09:50:19;22.90;76.40
66184;DHT22;52989;48.796;9.806;2023-05-07T09:52:46;22.60;75.90
66184;DHT22;52989;48.796;9.806;2023-05-07T09:55:12;22.60;71.30
66184;DHT22;52989;48.796;9.806;2023-05-07T09:57:38;23.00;70.50
66184;DHT22;52989;48.796;9.806;2023-05-07T10:00:04;23.10;70.20
66184;DHT22;52989;48.796;9.806;2023-05-07T10:02:30;23.20;68.50
66184;DHT22;52989;48.796;9.806;2023-05-07T10:04:57;23.20;70.10
66184;DHT22;52989;48.796;9.806;2023-05-07T10:07:23;23.20;72.00
66184;DHT22;52989;48.796;9.806;2023-05-07T10:09:49;23.30;73.80
66184;DHT22;52989;48.796;9.806;2023-05-07T10:12:15;23.10;73.10
66184;DHT22;52989;48.796;9.806;2023-05-07T10:14:42;23.20;72.40
66184;DHT22;52989;48.796;9.806;2023-05-07T10:17:07;23.10;72.40
66184;DHT22;52989;48.796;9.806;2023-05-07T10:19:33;23.00;67.60
66184;DHT22;52989;48.796;9.806;2023-05-07T10:22:01;23.10;69.10
66184;DHT22;52989;48.796;9.806;2023-05-07T10:24:35;23.10;69.60
66184;DHT22;52989;48.796;9.806;2023-05-07T10:27:02;23.40;70.90
66184;DHT22;52989;48.796;9.806;2023-05-07T10:34:28;23.10;73.00
66184;DHT22;52989;48.796;9.806;2023-05-07T10:36:55;23.00;73.90
66184;DHT22;52989;48.796;9.806;2023-05-07T10:39:21;22.80;74.30
66184;DHT22;52989;48.796;9.806;2023-05-07T10:41:47;22.50;69.10
66184;DHT22;52989;48.796;9.806;2023-05-07T10:44:24;22.80;68.00
66184;DHT22;52989;48.796;9.806;2023-05-07T10:49:30;22.80;74.70
66184;DHT22;52989;48.796;9.806;2023-05-07T10:52:10;23.20;69.40
66184;DHT22;52989;48.796;9.806;2023-05-07T10:54:36;23.20;73.90
66184;DHT22;52989;48.796;9.806;2023-05-07T10:57:32;23.10;73.70
66184;DHT22;52989;48.796;9.806;2023-05-07T10:59:47;23.40;71.90
66184;DHT22;52989;48.796;9.806;2023-05-07T11:02:14;23.40;70.80
66184;DHT22;52989;48.796;9.806;2023-05-07T11:04:40;23.40;74.40
66184;DHT22;52989;48.796;9.806;2023-05-07T11:09:53;23.30;72.20
66184;DHT22;52989;48.796;9.806;2023-05-07T11:15:04;23.70;68.90
66184;DHT22;52989;48.796;9.806;2023-05-07T11:17:29;23.60;71.00
66184;DHT22;52989;48.796;9.806;2023-05-07T11:19:57;23.20;69.90
66184;DHT22;52989;48.796;9.806;2023-05-07T11:25:02;23.20;68.30
66184;DHT22;52989;48.796;9.806;2023-05-07T11:27:27;23.00;67.90
66184;DHT22;52989;48.796;9.806;2023-05-07T11:29:53;22.80;69.80
66184;DHT22;52989;48.796;9.806;2023-05-07T11:32:22;22.40;76.90
66184;DHT22;52989;48.796;9.806;2023-05-07T11:34:52;22.10;71.20
66184;DHT22;52989;48.796;9.806;2023-05-07T11:37:18;22.50;69.50
66184;DHT22;52989;48.796;9.806;2023-05-07T11:39:43;22.70;71.80
66184;DHT22;52989;48.796;9.806;2023-05-07T11:42:25;22.90;70.60
66184;DHT22;52989;48.796;9.806;2023-05-07T11:44:50;23.10;68.20
66184;DHT22;52989;48.796;9.806;2023-05-07T11:47:19;23.40;67.10
66184;DHT22;52989;48.796;9.806;2023-05-07T11:49:48;23.50;67.10
66184;DHT22;52989;48.796;9.806;2023-05-07T11:52:14;23.50;66.60
66184;DHT22;52989;48.796;9.806;2023-05-07T11:54:39;23.40;68.70
66184;DHT22;52989;48.796;9.806;2023-05-07T11:57:05;23.40;66.30
66184;DHT22;52989;48.796;9.806;2023-05-07T11:59:41;23.20;71.80
66184;DHT22;52989;48.796;9.806;2023-05-07T12:02:07;23.20;66.80
66184;DHT22;52989;48.796;9.806;2023-05-07T12:04:33;23.40;68.60
66184;DHT22;52989;48.796;9.806;2023-05-07T12:06:58;23.70;67.50
66184;DHT22;52989;48.796;9.806;2023-05-07T12:09:24;23.80;66.70
66184;DHT22;52989;48.796;9.806;2023-05-07T12:11:49;23.90;64.30
66184;DHT22;52989;48.796;9.806;2023-05-07T12:14:16;24.10;65.00
66184;DHT22;52989;48.796;9.806;2023-05-07T12:16:42;24.20;65.00
66184;DHT22;52989;48.796;9.806;2023-05-07T12:19:07;24.00;67.80
66184;DHT22;52989;48.796;9.806;2023-05-07T12:21:34;23.90;66.90
66184;DHT22;52989;48.796;9.806;2023-05-07T12:23:59;23.80;64.30
66184;DHT22;52989;48.796;9.806;2023-05-07T12:26:25;23.60;73.70
66184;DHT22;52989;48.796;9.806;2023-05-07T12:28:51;23.60;66.10
66184;DHT22;52989;48.796;9.806;2023-05-07T12:31:17;23.40;69.20
66184;DHT22;52989;48.796;9.806;2023-05-07T12:33:42;23.30;68.40
66184;DHT22;52989;48.796;9.806;2023-05-07T12:36:08;23.40;70.60
66184;DHT22;52989;48.796;9.806;2023-05-07T12:38:34;23.40;64.40
66184;DHT22;52989;48.796;9.806;2023-05-07T12:41:00;23.00;71.20
66184;DHT22;52989;48.796;9.806;2023-05-07T12:43:27;23.20;72.60
66184;DHT22;52989;48.796;9.806;2023-05-07T12:45:54;23.00;71.80
66184;DHT22;52989;48.796;9.806;2023-05-07T12:48:20;22.90;74.30
66184;DHT22;52989;48.796;9.806;2023-05-07T12:50:55;22.90;71.70
66184;DHT22;52989;48.796;9.806;2023-05-07T12:53:23;22.80;69.60
66184;DHT22;52989;48.796;9.806;2023-05-07T12:55:49;22.70;69.20
66184;DHT22;52989;48.796;9.806;2023-05-07T13:00:50;22.80;70.00
66184;DHT22;52989;48.796;9.806;2023-05-07T13:05:48;23.10;68.90
66184;DHT22;52989;48.796;9.806;2023-05-07T13:08:22;23.10;72.00
66184;DHT22;52989;48.796;9.806;2023-05-07T13:10:48;22.90;71.40
66184;DHT22;52989;48.796;9.806;2023-05-07T13:13:13;22.60;75.80
66184;DHT22;52989;48.796;9.806;2023-05-07T13:15:39;22.40;72.40
66184;DHT22;52989;48.796;9.806;2023-05-07T13:18:04;22.10;76.90
66184;DHT22;52989;48.796;9.806;2023-05-07T13:20:30;21.50;78.90
66184;DHT22;52989;48.796;9.806;2023-05-07T13:22:55;21.40;77.40
66184;DHT22;52989;48.796;9.806;2023-05-07T13:25:21;21.20;77.40
66184;DHT22;52989;48.796;9.806;2023-05-07T13:27:46;21.10;78.40
66184;DHT22;52989;48.796;9.806;2023-05-07T13:30:12;20.80;80.00
66184;DHT22;52989;48.796;9.806;2023-05-07T13:32:37;20.90;79.30
66184;DHT22;52989;48.796;9.806;2023-05-07T13:35:03;20.80;79.20
66184;DHT22;52989;48.796;9.806;2023-05-07T13:37:28;20.80;78.20
66184;DHT22;52989;48.796;9.806;2023-05-07T13:39:54;21.00;77.10
66184;DHT22;52989;48.796;9.806;2023-05-07T13:42:19;21.00;78.80
66184;DHT22;52989;48.796;9.806;2023-05-07T13:44:45;20.90;78.30
66184;DHT22;52989;48.796;9.806;2023-05-07T13:47:11;20.80;79.40
66184;DHT22;52989;48.796;9.806;2023-05-07T13:49:36;20.80;77.60
66184;DHT22;52989;48.796;9.806;2023-05-07T13:52:02;20.70;77.90
66184;DHT22;52989;48.796;9.806;2023-05-07T13:54:27;20.70;77.20
66184;DHT22;52989;48.796;9.806;2023-05-07T13:56:53;20.70;77.80
66184;DHT22;52989;48.796;9.806;2023-05-07T13:59:18;20.60;77.50
66184;DHT22;52989;48.796;9.806;2023-05-07T14:01:44;20.60;76.30
66184;DHT22;52989;48.796;9.806;2023-05-07T14:04:10;20.50;78.40
66184;DHT22;52989;48.796;9.806;2023-05-07T14:06:35;20.50;78.20
66184;DHT22;52989;48.796;9.806;2023-05-07T14:09:00;20.50;77.20
66184;DHT22;52989;48.796;9.806;2023-05-07T14:11:26;20.50;77.90
66184;DHT22;52989;48.796;9.806;2023-05-07T14:13:51;20.50;79.50
66184;DHT22;52989;48.796;9.806;2023-05-07T14:16:17;20.40;80.60
66184;DHT22;52989;48.796;9.806;2023-05-07T14:18:42;20.40;80.10
66184;DHT22;52989;48.796;9.806;2023-05-07T14:21:08;20.50;79.30
66184;DHT22;52989;48.796;9.806;2023-05-07T14:23:34;20.30;82.60
66184;DHT22;52989;48.796;9.806;2023-05-07T14:26:00;20.20;83.20
66184;DHT22;52989;48.796;9.806;2023-05-07T14:28:25;20.20;84.00
66184;DHT22;52989;48.796;9.806;2023-05-07T14:30:51;20.20;85.20
66184;DHT22;52989;48.796;9.806;2023-05-07T14:33:16;20.10;84.00
66184;DHT22;52989;48.796;9.806;2023-05-07T14:35:42;20.10;87.10
66184;DHT22;52989;48.796;9.806;2023-05-07T14:38:12;19.90;88.70
66184;DHT22;52989;48.796;9.806;2023-05-07T14:40:38;19.70;89.40
66184;DHT22;52989;48.796;9.806;2023-05-07T14:43:03;19.80;88.20
66184;DHT22;52989;48.796;9.806;2023-05-07T14:45:29;20.00;80.40
66184;DHT22;52989;48.796;9.806;2023-05-07T14:47:54;20.20;79.20
66184;DHT22;52989;48.796;9.806;2023-05-07T14:50:20;20.30;79.30
66184;DHT22;52989;48.796;9.806;2023-05-07T14:52:46;20.20;79.00
66184;DHT22;52989;48.796;9.806;2023-05-07T14:55:11;20.30;80.60
66184;DHT22;52989;48.796;9.806;2023-05-07T14:57:37;20.10;79.20
66184;DHT22;52989;48.796;9.806;2023-05-07T15:00:03;20.10;78.20
66184;DHT22;52989;48.796;9.806;2023-05-07T15:02:29;20.10;78.90
66184;DHT22;52989;48.796;9.806;2023-05-07T15:04:55;19.90;78.80
66184;DHT22;52989;48.796;9.806;2023-05-07T15:07:20;19.90;80.10
66184;DHT22;52989;48.796;9.806;2023-05-07T15:09:46;19.50;79.90
66184;DHT22;52989;48.796;9.806;2023-05-07T15:12:12;19.20;81.20
66184;DHT22;52989;48.796;9.806;2023-05-07T15:14:38;19.20;81.80
66184;DHT22;52989;48.796;9.806;2023-05-07T15:17:04;19.10;83.10
66184;DHT22;52989;48.796;9.806;2023-05-07T15:19:29;19.10;82.80
66184;DHT22;52989;48.796;9.806;2023-05-07T15:21:56;19.00;83.10
66184;DHT22;52989;48.796;9.806;2023-05-07T15:24:22;19.10;82.70
66184;DHT22;52989;48.796;9.806;2023-05-07T15:26:47;19.20;82.40
66184;DHT22;52989;48.796;9.806;2023-05-07T15:29:13;19.00;81.50
66184;DHT22;52989;48.796;9.806;2023-05-07T15:31:38;18.70;81.20
66184;DHT22;52989;48.796;9.806;2023-05-07T15:34:04;18.60;80.30
66184;DHT22;52989;48.796;9.806;2023-05-07T15:36:29;18.40;80.80
66184;DHT22;52989;48.796;9.806;2023-05-07T15:38:56;18.30;81.30
66184;DHT22;52989;48.796;9.806;2023-05-07T15:41:22;18.10;82.10
66184;DHT22;52989;48.796;9.806;2023-05-07T15:43:50;18.20;82.60
66184;DHT22;52989;48.796;9.806;2023-05-07T15:46:19;18.00;83.10